Airfield :
LOGIN :

Register | Disclaimer

   EN    FR    IT 

 










Legend :    VFR   Marginal VFR   IFR   Intensive IFR   Very Intensive IFR
Visi :
Ceiling :
>= 8 km
>= 3000ft
5 to 8 km
1000 to 3000 ft
1500m to 5 km
500 to 1000 ft
800 to 1500m
200 to 500 ft
< 800m
< 200 ft
Symbols :   Thunderstorms  Fog  Heavy snow  Heavy precipitations  Wind > 20 kt
SIGMETs :     Misc.  Thunderstorms  Icing  Turbulence  Mountain Waves  Volcanic Ashes






- Airport Elevation : 74 ft
- IATA code : LRH


LFBH - La Rochelle Ile de Ré

CURRENT METAR :
  • 250630Z AUTO 32008KT 9999 SCT047 BKN054 OVC150 06/03 Q1007 NOSIG

EXPIRED METARs :
  • 250600Z AUTO 32007KT 9999 FEW045 OVC150 06/03 Q1007 TEMPO 4500 -RA BKN014
  • 250530Z AUTO 33007KT 9999 FEW041 OVC150 06/03 Q1007 NOSIG
  • 250500Z AUTO 32009KT 9999 SCT041 SCT056 OVC150 06/03 Q1007 NOSIG
  • 250430Z AUTO 32008KT CAVOK 06/03 Q1007 NOSIG
  • 250400Z AUTO 32008KT CAVOK 06/02 Q1006 NOSIG

TAF TAF LFBH
Valid from the 25 at 06:00 until the 26 at 06:00 UTC


250500Z 2506/2606 34010KT CAVOK
TEMPO 2506/2507 4500 -RA BKN014
BECMG 2602/2604 11010KT
ATIS : +33 5 46 00 13 92



MET'MAP, your aeronautical weather chart ! - Copyright ORBIFLY December 2007 - Disclaimer

ORBIFLY MET'MAP TEAM :

Programming & Development : Alexandra Zaïnal
Concept & original design : Baudouin d'Aumeries
Assistance for programming : Marc-Olivier Méhu
Technical & hardware support : Manuel Goepfert

Contact : metmap@orbifly.com




SOURCES & CREDITS :

   NOAA